createdAt,value
2022-09-12T00:01:46.972Z,6.83
2022-09-12T00:04:48.447Z,6.57
2022-09-12T00:07:49.945Z,6.10
2022-09-12T00:10:51.532Z,6.37
2022-09-12T00:13:59.302Z,6.50
2022-09-12T00:17:01.658Z,6.50
2022-09-12T00:20:08.710Z,5.83
2022-09-12T00:23:10.925Z,6.20
2022-09-12T00:26:13.261Z,5.70
2022-09-12T00:29:20.463Z,6.50
2022-09-12T00:32:21.832Z,6.37
2022-09-12T00:35:23.207Z,6.80
2022-09-12T00:38:24.590Z,6.60
2022-09-12T00:41:34.985Z,6.00
2022-09-12T00:44:45.315Z,6.87
2022-09-12T00:47:46.725Z,6.33
2022-09-12T00:50:49.771Z,6.83
2022-09-12T00:53:54.987Z,6.67
2022-09-12T00:57:00.658Z,6.20
2022-09-12T01:00:16.640Z,6.80
2022-09-12T01:03:22.003Z,6.60
2022-09-12T01:06:28.401Z,6.40
2022-09-12T01:09:29.871Z,6.40
2022-09-12T01:12:33.001Z,6.57
2022-09-12T01:15:37.456Z,6.57
2022-09-12T01:18:51.346Z,6.47
2022-09-12T01:22:25.270Z,6.10
2022-09-12T01:25:45.129Z,6.33
2022-09-12T01:29:09.700Z,5.97
2022-09-12T01:32:24.814Z,6.30
2022-09-12T01:35:41.800Z,7.00
2022-09-12T01:38:50.237Z,6.37
2022-09-12T01:42:00.512Z,6.17
2022-09-12T01:45:11.433Z,6.47
2022-09-12T01:48:20.317Z,6.40
2022-09-12T01:51:28.168Z,6.23
2022-09-12T01:54:39.849Z,6.37
2022-09-12T01:57:57.805Z,6.40
2022-09-12T02:01:03.110Z,6.80
2022-09-12T02:04:20.798Z,6.33
2022-09-12T02:07:29.188Z,6.43
2022-09-12T02:10:34.425Z,6.47
2022-09-12T02:13:41.257Z,6.17
2022-09-12T02:16:46.750Z,6.00
2022-09-12T02:20:06.629Z,6.10
2022-09-12T02:23:12.049Z,6.03
2022-09-12T02:26:21.084Z,6.20
2022-09-12T02:29:24.078Z,5.73
2022-09-12T02:32:42.184Z,6.00
2022-09-12T02:35:57.924Z,6.30
2022-09-12T02:39:00.119Z,5.83
2022-09-12T02:42:02.898Z,6.70
2022-09-12T02:45:05.400Z,6.57
2022-09-12T02:48:22.277Z,6.23
2022-09-12T02:51:24.000Z,6.37
2022-09-12T02:54:25.718Z,6.30
2022-09-12T02:57:27.100Z,6.57
2022-09-12T03:00:32.721Z,6.13
2022-09-12T03:03:43.622Z,6.63
2022-09-12T03:07:03.652Z,6.33
2022-09-12T03:10:14.248Z,6.30
2022-09-12T03:13:25.090Z,6.50
2022-09-12T03:16:53.547Z,6.50
2022-09-12T03:20:03.417Z,6.30
2022-09-12T03:23:24.438Z,6.40
2022-09-12T03:26:31.329Z,6.23
2022-09-12T03:29:32.945Z,6.10
2022-09-12T03:32:51.973Z,6.77
2022-09-12T03:35:53.715Z,6.70
2022-09-12T03:38:55.649Z,6.10
2022-09-12T03:41:57.564Z,5.97
2022-09-12T03:44:59.006Z,6.10
2022-09-12T03:48:00.537Z,6.00
2022-09-12T03:51:04.130Z,6.23
2022-09-12T03:54:06.193Z,6.30
2022-09-12T03:57:07.570Z,6.07
2022-09-12T04:00:09.601Z,6.07
2022-09-12T04:03:19.256Z,5.90
2022-09-12T04:06:22.193Z,6.37
2022-09-12T04:09:23.847Z,6.07
2022-09-12T04:12:25.220Z,5.97
2022-09-12T04:15:27.622Z,6.30
2022-09-12T04:18:28.983Z,6.67
2022-09-12T04:21:31.611Z,5.97
2022-09-12T04:24:33.427Z,5.53
2022-09-12T04:27:35.367Z,6.17
2022-09-12T04:30:37.900Z,6.00
2022-09-12T04:33:39.667Z,6.07
2022-09-12T04:36:42.024Z,5.97
2022-09-12T04:39:43.451Z,6.20
2022-09-12T04:42:45.220Z,6.17
2022-09-12T04:45:46.775Z,6.13
2022-09-12T04:48:52.199Z,6.50
2022-09-12T04:51:55.973Z,5.77
2022-09-12T04:54:57.364Z,6.00
2022-09-12T04:57:58.821Z,6.13
2022-09-12T05:01:08.040Z,6.47
2022-09-12T05:04:11.392Z,6.13
2022-09-12T05:07:12.797Z,6.17
2022-09-12T05:10:14.572Z,5.90
2022-09-12T05:13:16.037Z,6.40
2022-09-12T05:16:18.345Z,6.57
2022-09-12T05:19:19.817Z,5.93
2022-09-12T05:22:21.517Z,6.60
2022-09-12T05:25:23.096Z,6.80
2022-09-12T05:28:28.743Z,6.43
2022-09-12T05:31:30.115Z,6.80
2022-09-12T05:34:31.888Z,6.23
2022-09-12T05:37:33.969Z,7.00
2022-09-12T05:40:35.668Z,6.33
2022-09-12T05:43:40.122Z,6.30
2022-09-12T05:46:43.595Z,6.90
2022-09-12T05:49:47.848Z,7.07
2022-09-12T05:52:50.216Z,6.60
2022-09-12T05:56:08.997Z,7.00
2022-09-12T05:59:16.384Z,7.20
2022-09-12T06:02:18.131Z,7.03
2022-09-12T06:05:19.547Z,7.03
2022-09-12T06:08:20.918Z,6.97
2022-09-12T06:11:25.872Z,7.23
2022-09-12T06:14:27.297Z,6.60
2022-09-12T06:17:28.705Z,7.70
2022-09-12T06:20:30.321Z,6.80
2022-09-12T06:23:32.413Z,7.00
2022-09-12T06:26:34.213Z,6.20
2022-09-12T06:29:35.582Z,6.43
2022-09-12T06:32:36.949Z,6.67
2022-09-12T06:35:38.576Z,5.80
2022-09-12T06:38:40.564Z,6.80
2022-09-12T06:41:44.166Z,6.37
2022-09-12T06:44:45.955Z,6.27
2022-09-12T06:47:47.367Z,6.43
2022-09-12T06:51:02.370Z,7.63
2022-09-12T06:54:05.310Z,6.70
2022-09-12T06:57:07.173Z,7.30
2022-09-12T07:00:10.049Z,6.93
2022-09-12T07:03:11.491Z,7.13
2022-09-12T07:06:14.348Z,7.37
2022-09-12T07:09:18.823Z,7.07
2022-09-12T07:12:20.192Z,7.40
2022-09-12T07:15:21.585Z,7.00
2022-09-12T07:18:23.593Z,7.27
2022-09-12T07:21:25.475Z,7.33
2022-09-12T07:24:26.923Z,7.20
2022-09-12T07:27:28.318Z,6.30
2022-09-12T07:30:29.724Z,7.30
2022-09-12T07:33:31.127Z,6.93
2022-09-12T07:36:32.707Z,6.67
2022-09-12T07:39:34.070Z,7.37
2022-09-12T07:42:35.760Z,6.53
2022-09-12T07:45:37.351Z,6.30
2022-09-12T07:48:39.555Z,6.80
2022-09-12T07:51:41.130Z,6.37
2022-09-12T07:54:42.520Z,6.40
2022-09-12T07:57:43.897Z,6.63
2022-09-12T08:00:45.869Z,6.30
2022-09-12T08:03:49.629Z,6.90
2022-09-12T08:06:51.494Z,7.00
2022-09-12T08:09:53.652Z,6.73
2022-09-12T08:12:55.025Z,6.60
2022-09-12T08:16:02.066Z,6.50
2022-09-12T08:19:04.369Z,6.87
2022-09-12T08:22:05.801Z,6.77
2022-09-12T08:25:08.614Z,7.07
2022-09-12T08:28:10.044Z,5.80
2022-09-12T08:31:14.269Z,6.27
2022-09-12T08:34:18.576Z,6.93
2022-09-12T08:37:19.954Z,6.00
2022-09-12T08:40:21.404Z,6.57
2022-09-12T08:43:40.324Z,6.20
2022-09-12T08:47:00.365Z,5.77
2022-09-12T08:50:12.547Z,6.10
2022-09-12T08:53:19.224Z,6.40
2022-09-12T08:56:20.616Z,6.57
2022-09-12T08:59:21.994Z,6.03
2022-09-12T09:02:57.357Z,6.20
2022-09-12T09:06:32.313Z,6.50
2022-09-12T09:09:48.153Z,5.63
2022-09-12T09:13:08.821Z,5.73
2022-09-12T09:16:30.569Z,5.87
2022-09-12T09:19:37.862Z,5.23
2022-09-12T09:23:15.349Z,5.80
2022-09-12T09:26:30.363Z,5.70
2022-09-12T09:29:44.085Z,5.87
2022-09-12T09:32:50.836Z,5.63
2022-09-12T09:36:02.217Z,5.40
2022-09-12T09:39:21.920Z,5.40
2022-09-12T09:42:53.833Z,5.77
2022-09-12T09:45:57.041Z,5.23
2022-09-12T09:49:03.166Z,5.50
2022-09-12T09:52:08.009Z,5.37
2022-09-12T09:55:17.597Z,5.10
2022-09-12T09:58:29.932Z,4.87
2022-09-12T10:01:31.358Z,4.60
2022-09-12T10:04:41.561Z,4.97
2022-09-12T10:07:50.397Z,5.63
2022-09-12T10:11:05.701Z,5.10
2022-09-12T10:14:39.195Z,4.70
2022-09-12T10:17:43.973Z,4.37
2022-09-12T10:20:45.789Z,4.27
2022-09-12T10:23:51.026Z,4.27
2022-09-12T10:26:57.663Z,4.00
2022-09-12T10:30:29.085Z,4.27
2022-09-12T10:33:41.937Z,3.73
2022-09-12T10:36:43.367Z,3.57
2022-09-12T10:39:53.699Z,3.40
2022-09-12T10:42:57.856Z,3.90
2022-09-12T10:46:20.156Z,3.30
2022-09-12T10:49:31.758Z,3.40
2022-09-12T10:52:33.126Z,2.93
2022-09-12T10:55:35.438Z,3.10
2022-09-12T10:58:46.853Z,3.20
2022-09-12T11:01:55.674Z,3.13
2022-09-12T11:05:37.198Z,3.20
2022-09-12T11:09:01.509Z,3.20
2022-09-12T11:12:11.524Z,2.90
2022-09-12T11:15:28.010Z,2.60
2022-09-12T11:19:03.702Z,3.03
2022-09-12T11:22:39.502Z,2.90
2022-09-12T11:25:52.680Z,2.97
2022-09-12T11:29:34.786Z,3.00
2022-09-12T11:33:01.394Z,2.90
2022-09-12T11:36:07.809Z,2.80
2022-09-12T11:39:15.448Z,3.10
2022-09-12T11:42:22.517Z,2.80
2022-09-12T11:45:32.537Z,2.80
2022-09-12T11:48:46.595Z,2.77
2022-09-12T11:51:57.529Z,2.60
2022-09-12T11:55:11.188Z,2.70
2022-09-12T11:58:12.916Z,3.00
2022-09-12T12:01:27.407Z,2.70
2022-09-12T12:04:41.271Z,3.00
2022-09-12T12:08:06.425Z,2.63
2022-09-12T12:11:26.889Z,2.40
2022-09-12T12:14:44.475Z,2.33
2022-09-12T12:17:59.327Z,2.70
2022-09-12T12:21:39.981Z,2.23
2022-09-12T12:24:57.488Z,2.40
2022-09-12T12:28:02.190Z,2.53
2022-09-12T12:31:05.691Z,2.20
2022-09-12T12:34:22.292Z,2.35
2022-09-12T12:37:29.235Z,2.23
2022-09-12T12:40:31.080Z,2.40
2022-09-12T12:43:32.640Z,2.30
2022-09-12T12:46:38.287Z,2.80
2022-09-12T12:49:39.810Z,2.35
2022-09-12T12:53:03.422Z,2.30
2022-09-12T12:56:05.239Z,2.67
2022-09-12T12:59:21.001Z,2.42
2022-09-12T13:02:33.469Z,2.40
2022-09-12T13:05:47.198Z,2.30
2022-09-12T13:09:00.046Z,2.80
2022-09-12T13:12:12.274Z,2.40
2022-09-12T13:15:36.871Z,2.17
2022-09-12T13:18:47.896Z,2.65
2022-09-12T13:22:15.523Z,2.10
2022-09-12T13:25:19.981Z,1.90
2022-09-12T13:28:21.547Z,1.90
2022-09-12T13:31:26.123Z,1.80
2022-09-12T13:34:32.756Z,1.90
2022-09-12T13:37:49.729Z,2.20
2022-09-12T13:41:15.040Z,1.90
2022-09-12T13:44:19.929Z,1.95
2022-09-12T13:47:30.926Z,2.10
2022-09-12T13:50:41.210Z,1.80
2022-09-12T13:53:46.151Z,2.20
2022-09-12T13:56:49.133Z,1.88
2022-09-12T13:59:55.365Z,2.10
2022-09-12T14:03:16.764Z,2.15
2022-09-12T14:06:18.899Z,2.20
2022-09-12T14:09:53.309Z,2.28
2022-09-12T14:12:57.195Z,2.20
2022-09-12T14:15:59.688Z,2.05
2022-09-12T14:19:01.768Z,1.83
2022-09-12T14:22:03.415Z,1.98
2022-09-12T14:25:05.481Z,2.40
2022-09-12T14:28:11.669Z,1.98
2022-09-12T14:31:16.720Z,1.65
2022-09-12T14:34:19.818Z,1.63
2022-09-12T14:37:21.199Z,1.90
2022-09-12T14:40:23.876Z,1.80
2022-09-12T14:43:27.542Z,1.80
2022-09-12T14:46:40.279Z,1.90
2022-09-12T14:49:42.396Z,2.05
2022-09-12T14:52:44.187Z,1.98
2022-09-12T14:55:52.959Z,2.20
2022-09-12T14:59:26.072Z,1.90
2022-09-12T15:02:27.471Z,2.10
2022-09-12T15:05:29.420Z,1.80
2022-09-12T15:08:32.115Z,1.80
2022-09-12T15:11:33.795Z,1.70
2022-09-12T15:14:35.278Z,1.83
2022-09-12T15:17:36.915Z,1.90
2022-09-12T15:20:41.035Z,1.88
2022-09-12T15:23:50.698Z,1.80
2022-09-12T15:26:52.576Z,1.85
2022-09-12T15:29:54.137Z,1.63
2022-09-12T15:32:55.593Z,1.70
2022-09-12T15:35:57.013Z,1.70
2022-09-12T15:38:58.492Z,1.92
2022-09-12T15:41:59.888Z,1.60
2022-09-12T15:45:02.700Z,1.40
2022-09-12T15:48:04.426Z,1.30
2022-09-12T15:51:15.455Z,1.80
2022-09-12T15:54:18.046Z,1.52
2022-09-12T15:57:19.498Z,1.70
2022-09-12T16:00:21.231Z,1.75
2022-09-12T16:03:25.698Z,1.63
2022-09-12T16:06:33.576Z,1.90
2022-09-12T16:09:37.967Z,1.63
2022-09-12T16:12:39.337Z,1.48
2022-09-12T16:15:40.835Z,1.90
2022-09-12T16:18:42.751Z,1.70
2022-09-12T16:21:44.222Z,1.73
2022-09-12T16:24:45.617Z,2.15
2022-09-12T16:27:47.078Z,2.03
2022-09-12T16:30:56.366Z,1.80
2022-09-12T16:33:57.784Z,1.70
2022-09-12T16:36:59.165Z,2.10
2022-09-12T16:40:01.402Z,1.73
2022-09-12T16:43:02.802Z,1.65
2022-09-12T16:46:10.163Z,2.40
2022-09-12T16:49:12.006Z,2.05
2022-09-12T16:52:16.412Z,1.65
2022-09-12T16:55:17.774Z,2.00
2022-09-12T16:58:19.138Z,2.20
2022-09-12T17:01:23.262Z,2.05
2022-09-12T17:04:24.656Z,2.10
2022-09-12T17:07:26.046Z,2.58
2022-09-12T17:10:27.906Z,1.70
2022-09-12T17:13:52.882Z,2.08
2022-09-12T17:16:52.472Z,1.85
2022-09-12T17:19:53.876Z,2.42
2022-09-12T17:22:55.261Z,2.22
2022-09-12T17:25:56.660Z,2.17
2022-09-12T17:28:58.299Z,2.13
2022-09-12T17:31:59.732Z,2.00
2022-09-12T17:35:01.083Z,2.10
2022-09-12T17:38:02.655Z,2.70
2022-09-12T17:41:09.007Z,2.20
2022-09-12T17:44:15.042Z,2.05
2022-09-12T17:47:16.492Z,2.55
2022-09-12T17:50:31.343Z,2.53
2022-09-12T17:53:34.493Z,2.28
2022-09-12T17:56:37.027Z,2.20
2022-09-12T17:59:38.425Z,2.58
2022-09-12T18:02:40.082Z,2.50
2022-09-12T18:05:48.605Z,2.58
2022-09-12T18:08:50.281Z,2.50
2022-09-12T18:11:52.460Z,2.83
2022-09-12T18:14:53.825Z,3.10
2022-09-12T18:17:55.185Z,3.25
2022-09-12T18:20:56.557Z,3.10
2022-09-12T18:24:01.318Z,3.00
2022-09-12T18:27:03.868Z,3.53
2022-09-12T18:30:20.634Z,4.27
2022-09-12T18:33:24.251Z,3.73
2022-09-12T18:36:26.051Z,3.60
2022-09-12T18:39:28.025Z,3.30
2022-09-12T18:42:29.568Z,3.80
2022-09-12T18:45:31.545Z,3.70
2022-09-12T18:48:33.890Z,4.27
2022-09-12T18:51:36.981Z,4.20
2022-09-12T18:54:38.476Z,4.30
2022-09-12T18:57:41.284Z,4.20
2022-09-12T19:00:44.573Z,4.40
2022-09-12T19:03:46.385Z,4.43
2022-09-12T19:06:48.332Z,4.50
2022-09-12T19:09:50.282Z,4.43
2022-09-12T19:12:51.705Z,4.50
2022-09-12T19:15:53.083Z,4.50
2022-09-12T19:18:55.833Z,4.47
2022-09-12T19:21:57.295Z,4.50
2022-09-12T19:24:58.668Z,5.23
2022-09-12T19:28:00.160Z,4.90
2022-09-12T19:31:06.614Z,5.17
2022-09-12T19:34:10.455Z,4.53
2022-09-12T19:37:11.913Z,4.53
2022-09-12T19:40:13.363Z,5.00
2022-09-12T19:43:14.768Z,4.57
2022-09-12T19:46:18.136Z,4.50
2022-09-12T19:49:19.571Z,4.17
2022-09-12T19:52:20.960Z,3.93
2022-09-12T19:55:22.383Z,4.37
2022-09-12T19:58:23.748Z,3.57
2022-09-12T20:01:29.462Z,3.60
2022-09-12T20:04:33.963Z,3.53
2022-09-12T20:07:35.307Z,3.50
2022-09-12T20:10:37.275Z,3.57
2022-09-12T20:13:38.661Z,3.30
2022-09-12T20:16:40.111Z,3.80
2022-09-12T20:19:41.479Z,3.33
2022-09-12T20:22:42.941Z,3.23
2022-09-12T20:25:44.404Z,3.10
2022-09-12T20:28:45.859Z,3.40
2022-09-12T20:31:47.413Z,3.40
2022-09-12T20:34:48.792Z,3.23
2022-09-12T20:37:50.332Z,3.17
2022-09-12T20:40:51.758Z,3.07
2022-09-12T20:43:54.715Z,3.20
2022-09-12T20:46:56.899Z,3.17
2022-09-12T20:49:58.433Z,3.17
2022-09-12T20:53:01.550Z,3.10
2022-09-12T20:56:05.267Z,3.47
2022-09-12T20:59:06.939Z,4.37
2022-09-12T21:02:15.309Z,4.10
2022-09-12T21:05:17.069Z,3.23
2022-09-12T21:08:18.427Z,3.90
2022-09-12T21:11:20.180Z,3.20
2022-09-12T21:14:21.852Z,3.20
2022-09-12T21:17:23.264Z,3.30
2022-09-12T21:20:24.888Z,2.97
2022-09-12T21:23:27.495Z,3.00
2022-09-12T21:26:29.747Z,3.40
2022-09-12T21:29:31.546Z,3.07
2022-09-12T21:32:35.890Z,3.10
2022-09-12T21:35:37.931Z,3.23
2022-09-12T21:38:39.477Z,3.20
2022-09-12T21:41:40.933Z,3.20
2022-09-12T21:44:42.327Z,3.23
2022-09-12T21:47:44.247Z,3.50
2022-09-12T21:50:50.582Z,3.30
2022-09-12T21:53:52.003Z,3.20
2022-09-12T21:56:53.365Z,3.20
2022-09-12T21:59:54.721Z,3.50
2022-09-12T22:02:57.477Z,2.73
2022-09-12T22:06:01.410Z,2.70
2022-09-12T22:09:04.385Z,3.77
2022-09-12T22:12:06.359Z,3.20
2022-09-12T22:15:29.292Z,3.47
2022-09-12T22:18:33.013Z,3.30
2022-09-12T22:21:34.599Z,2.90
2022-09-12T22:24:36.115Z,3.73
2022-09-12T22:27:39.025Z,3.07
2022-09-12T22:30:42.891Z,3.40
2022-09-12T22:33:45.614Z,3.20
2022-09-12T22:36:47.921Z,3.00
2022-09-12T22:39:49.332Z,3.10
2022-09-12T22:42:53.917Z,2.90
2022-09-12T22:45:55.302Z,3.00
2022-09-12T22:48:56.676Z,3.20
2022-09-12T22:51:58.046Z,3.60
2022-09-12T22:54:59.472Z,3.20
2022-09-12T22:58:00.872Z,3.40
2022-09-12T23:01:02.671Z,3.43
2022-09-12T23:04:04.927Z,3.23
2022-09-12T23:07:06.556Z,3.50
2022-09-12T23:10:08.301Z,3.00
2022-09-12T23:13:10.056Z,3.33
2022-09-12T23:16:16.222Z,3.27
2022-09-12T23:19:17.718Z,3.07
2022-09-12T23:22:19.832Z,3.43
2022-09-12T23:25:22.751Z,3.50
2022-09-12T23:28:24.171Z,3.53
2022-09-12T23:31:31.011Z,3.13
2022-09-12T23:34:33.437Z,3.40
2022-09-12T23:37:34.810Z,3.07
2022-09-12T23:40:36.164Z,3.10
2022-09-12T23:43:37.753Z,3.40
2022-09-12T23:46:39.115Z,3.37
2022-09-12T23:49:40.505Z,3.10
2022-09-12T23:52:41.910Z,2.93
2022-09-12T23:55:44.782Z,3.10
2022-09-12T23:58:46.266Z,3.00
